createdAt,value
2018-03-08T00:02:01.376Z,77.00
2018-03-08T00:04:28.888Z,77.30
2018-03-08T00:06:56.429Z,77.40
2018-03-08T00:09:23.948Z,77.30
2018-03-08T00:11:51.477Z,77.00
2018-03-08T00:14:18.990Z,77.00
2018-03-08T00:16:47.288Z,77.50
2018-03-08T00:19:14.801Z,77.40
2018-03-08T00:21:42.339Z,76.90
2018-03-08T00:24:09.863Z,77.00
2018-03-08T00:26:37.409Z,77.20
2018-03-08T00:29:04.933Z,76.80
2018-03-08T00:31:32.599Z,77.10
2018-03-08T00:34:00.890Z,77.00
2018-03-08T00:36:28.419Z,77.00
2018-03-08T00:38:55.929Z,77.20
2018-03-08T00:41:23.463Z,77.20
2018-03-08T00:43:51.092Z,77.50
2018-03-08T00:46:18.628Z,77.20
2018-03-08T00:48:46.166Z,77.40
2018-03-08T00:51:13.711Z,77.20
2018-03-08T00:53:41.238Z,77.30
2018-03-08T00:56:08.767Z,77.30
2018-03-08T00:58:36.285Z,77.40
2018-03-08T01:01:03.808Z,77.40
2018-03-08T01:03:31.345Z,77.30
2018-03-08T01:05:58.860Z,77.10
2018-03-08T01:08:26.389Z,77.50
2018-03-08T01:10:53.902Z,77.20
2018-03-08T01:13:21.437Z,77.40
2018-03-08T01:15:48.954Z,77.20
2018-03-08T01:18:16.501Z,77.30
2018-03-08T01:20:44.026Z,77.40
2018-03-08T01:23:11.562Z,77.60
2018-03-08T01:25:39.077Z,77.40
2018-03-08T01:28:06.613Z,77.60
2018-03-08T01:30:34.128Z,77.50
2018-03-08T01:33:01.658Z,77.60
2018-03-08T01:35:29.182Z,77.50
2018-03-08T01:37:56.721Z,77.40
2018-03-08T01:40:24.248Z,77.30
2018-03-08T01:42:52.553Z,77.70
2018-03-08T01:45:20.069Z,77.60
2018-03-08T01:47:47.602Z,77.50
2018-03-08T01:50:15.113Z,77.60
2018-03-08T01:52:43.428Z,77.80
2018-03-08T01:55:10.948Z,77.60
2018-03-08T01:57:39.241Z,77.40
2018-03-08T02:00:06.762Z,77.30
2018-03-08T02:02:34.294Z,77.90
2018-03-08T02:05:01.822Z,78.50
2018-03-08T02:07:30.116Z,78.10
2018-03-08T02:09:57.635Z,78.10
2018-03-08T02:12:25.156Z,77.90
2018-03-08T02:14:52.670Z,78.00
2018-03-08T02:17:20.196Z,78.30
2018-03-08T02:19:47.729Z,78.30
2018-03-08T02:22:15.252Z,78.30
2018-03-08T02:24:42.786Z,78.50
2018-03-08T02:27:10.326Z,78.50
2018-03-08T02:29:38.609Z,78.30
2018-03-08T02:32:06.160Z,78.20
2018-03-08T02:34:34.456Z,78.90
2018-03-08T02:37:01.989Z,78.80
2018-03-08T02:39:30.265Z,79.00
2018-03-08T02:41:58.570Z,79.30
2018-03-08T02:44:26.082Z,79.30
2018-03-08T02:46:53.609Z,78.80
2018-03-08T02:49:21.118Z,78.90
2018-03-08T02:51:48.624Z,79.50
2018-03-08T02:54:16.156Z,79.60
2018-03-08T02:56:43.669Z,79.90
2018-03-08T02:59:11.216Z,79.90
2018-03-08T03:01:38.723Z,79.50
2018-03-08T03:04:06.245Z,79.80
2018-03-08T03:06:33.743Z,79.80
2018-03-08T03:09:01.265Z,79.70
2018-03-08T03:11:28.775Z,79.60
2018-03-08T03:13:56.304Z,79.80
2018-03-08T03:16:24.612Z,79.90
2018-03-08T03:18:52.145Z,79.90
2018-03-08T03:21:19.646Z,79.70
2018-03-08T03:23:47.179Z,79.80
2018-03-08T03:26:14.685Z,80.10
2018-03-08T03:28:42.990Z,80.60
2018-03-08T03:31:10.485Z,79.80
2018-03-08T03:33:38.009Z,79.50
2018-03-08T03:36:05.524Z,79.90
2018-03-08T03:38:33.068Z,79.70
2018-03-08T03:41:00.582Z,79.30
2018-03-08T03:43:28.111Z,79.40
2018-03-08T03:45:55.613Z,79.10
2018-03-08T03:48:23.158Z,78.90
2018-03-08T03:50:50.659Z,79.10
2018-03-08T03:53:18.189Z,79.30
2018-03-08T03:55:45.694Z,79.50
2018-03-08T03:58:13.223Z,79.30
2018-03-08T04:00:40.730Z,79.60
2018-03-08T04:03:09.030Z,79.30
2018-03-08T04:05:36.536Z,79.30
2018-03-08T04:08:04.057Z,79.40
2018-03-08T04:10:32.337Z,79.80
2018-03-08T04:12:59.866Z,79.80
2018-03-08T04:15:27.375Z,80.40
2018-03-08T04:17:54.907Z,79.90
2018-03-08T04:20:22.419Z,80.20
2018-03-08T04:22:50.708Z,79.90
2018-03-08T04:25:18.990Z,80.20
2018-03-08T04:27:46.518Z,80.20
2018-03-08T04:30:14.034Z,80.00
2018-03-08T04:32:41.570Z,79.60
2018-03-08T04:35:09.077Z,79.60
2018-03-08T04:37:36.613Z,79.40
2018-03-08T04:40:04.140Z,79.20
2018-03-08T04:42:31.664Z,79.50
2018-03-08T04:44:59.170Z,79.80
2018-03-08T04:47:26.702Z,79.90
2018-03-08T04:49:54.240Z,80.00
2018-03-08T04:52:21.778Z,79.50
2018-03-08T04:54:49.305Z,79.70
2018-03-08T04:57:16.812Z,79.50
2018-03-08T04:59:44.342Z,79.70
2018-03-08T05:02:25.461Z,80.00
2018-03-08T05:04:53.752Z,79.90
2018-03-08T05:07:21.256Z,79.90
2018-03-08T05:09:48.786Z,79.40
2018-03-08T05:12:16.296Z,79.40
2018-03-08T05:14:44.598Z,80.60
2018-03-08T05:17:12.104Z,80.40
2018-03-08T05:19:39.633Z,80.20
2018-03-08T05:22:07.145Z,80.00
2018-03-08T05:24:34.722Z,80.20
2018-03-08T05:27:02.233Z,80.40
2018-03-08T05:29:29.932Z,80.80
2018-03-08T05:31:57.520Z,80.00
2018-03-08T05:34:25.054Z,80.60
2018-03-08T05:36:53.366Z,80.50
2018-03-08T05:39:21.008Z,80.40
2018-03-08T05:41:49.116Z,80.50
2018-03-08T05:44:16.787Z,80.70
2018-03-08T05:46:44.496Z,80.50
2018-03-08T05:49:12.992Z,80.70
2018-03-08T05:51:40.520Z,80.70
2018-03-08T05:54:08.818Z,80.10
2018-03-08T05:56:36.342Z,80.10
2018-03-08T05:59:03.872Z,80.20
2018-03-08T06:01:31.388Z,80.60
2018-03-08T06:03:58.926Z,80.10
2018-03-08T06:06:27.231Z,80.20
2018-03-08T06:08:55.406Z,80.20
2018-03-08T06:11:22.936Z,80.20
2018-03-08T06:13:51.251Z,80.20
2018-03-08T06:16:18.765Z,80.20
2018-03-08T06:18:47.088Z,80.20
2018-03-08T06:23:47.116Z,80.20
2018-03-08T06:26:14.656Z,80.10
2018-03-08T06:28:42.943Z,80.40
2018-03-08T06:33:43.520Z,80.00
2018-03-08T06:36:11.033Z,80.00
2018-03-08T06:38:38.573Z,79.80
2018-03-08T06:41:06.876Z,79.70
2018-03-08T06:43:34.405Z,79.70
2018-03-08T06:46:02.700Z,79.80
2018-03-08T06:48:30.236Z,79.80
2018-03-08T06:51:02.509Z,80.00
2018-03-08T06:53:30.825Z,80.00
2018-03-08T06:55:58.356Z,80.00
2018-03-08T06:58:25.889Z,80.20
2018-03-08T07:00:53.408Z,80.20
2018-03-08T07:03:20.936Z,79.80
2018-03-08T07:05:48.490Z,80.00
2018-03-08T07:08:16.026Z,80.00
2018-03-08T07:10:43.609Z,80.00
2018-03-08T07:13:11.168Z,80.30
2018-03-08T07:15:38.701Z,79.80
2018-03-08T07:18:06.228Z,79.80
2018-03-08T07:20:33.765Z,80.00
2018-03-08T07:23:01.291Z,79.80
2018-03-08T07:25:28.824Z,79.80
2018-03-08T07:27:56.329Z,79.70
2018-03-08T07:30:24.301Z,79.60
2018-03-08T07:32:51.817Z,79.70
2018-03-08T07:35:19.361Z,79.30
2018-03-08T07:37:46.878Z,79.30
2018-03-08T07:40:14.417Z,79.00
2018-03-08T07:42:41.925Z,79.00
2018-03-08T07:45:09.471Z,79.20
2018-03-08T07:47:36.979Z,78.30
2018-03-08T07:50:05.282Z,77.90
2018-03-08T07:52:32.795Z,77.90
2018-03-08T07:55:00.336Z,76.50
2018-03-08T07:57:27.859Z,76.40
2018-03-08T07:59:55.405Z,75.30
2018-03-08T08:02:22.926Z,74.50
2018-03-08T08:05:02.366Z,73.90
2018-03-08T08:07:42.476Z,73.60
2018-03-08T08:10:10.038Z,73.50
2018-03-08T08:12:37.558Z,73.70
2018-03-08T08:15:05.097Z,73.40
2018-03-08T08:17:33.381Z,73.40
2018-03-08T08:20:01.689Z,73.10
2018-03-08T08:22:29.218Z,73.00
2018-03-08T08:24:56.782Z,73.30
2018-03-08T08:27:25.060Z,72.10
2018-03-08T08:29:52.605Z,72.00
2018-03-08T08:32:20.898Z,70.90
2018-03-08T08:37:21.307Z,70.00
2018-03-08T08:39:48.851Z,69.30
2018-03-08T08:42:16.374Z,69.00
2018-03-08T08:44:43.910Z,67.30
2018-03-08T08:47:11.709Z,67.80
2018-03-08T08:49:39.264Z,66.80
2018-03-08T08:52:06.801Z,66.50
2018-03-08T08:54:34.396Z,66.70
2018-03-08T08:57:01.903Z,66.50
2018-03-08T08:59:30.230Z,64.70
2018-03-08T09:01:57.740Z,64.70
2018-03-08T09:04:26.050Z,63.20
2018-03-08T09:06:53.586Z,63.20
2018-03-08T09:09:21.117Z,65.60
2018-03-08T09:11:48.643Z,64.70
2018-03-08T09:14:16.178Z,64.80
2018-03-08T09:16:43.721Z,65.90
2018-03-08T09:19:11.246Z,64.70
2018-03-08T09:21:40.283Z,65.50
2018-03-08T09:24:07.797Z,65.50
2018-03-08T09:26:36.117Z,66.00
2018-03-08T09:29:03.632Z,65.90
2018-03-08T09:31:31.925Z,65.40
2018-03-08T09:34:00.210Z,65.40
2018-03-08T09:36:27.751Z,65.30
2018-03-08T09:38:56.034Z,65.10
2018-03-08T09:41:23.570Z,65.10
2018-03-08T09:43:51.080Z,63.90
2018-03-08T09:46:19.381Z,65.10
2018-03-08T09:48:46.904Z,65.00
2018-03-08T09:51:14.436Z,64.60
2018-03-08T09:53:42.725Z,63.20
2018-03-08T09:56:10.258Z,63.20
2018-03-08T09:58:38.548Z,63.40
2018-03-08T10:01:06.844Z,59.10
2018-03-08T10:03:34.376Z,59.10
2018-03-08T10:06:02.694Z,62.20
2018-03-08T10:08:30.221Z,62.20
2018-03-08T10:10:57.783Z,62.80
2018-03-08T10:13:25.298Z,63.80
2018-03-08T10:15:52.836Z,60.40
2018-03-08T10:18:20.349Z,62.50
2018-03-08T10:20:49.578Z,61.40
2018-03-08T10:23:17.872Z,62.10
2018-03-08T10:25:45.412Z,61.90
2018-03-08T10:28:12.925Z,61.00
2018-03-08T10:30:40.458Z,61.10
2018-03-08T10:33:07.968Z,57.50
2018-03-08T10:35:41.534Z,59.90
2018-03-08T10:38:09.062Z,59.80
2018-03-08T10:43:08.694Z,57.80
2018-03-08T10:45:36.235Z,59.60
2018-03-08T10:48:03.744Z,57.80
2018-03-08T10:50:32.046Z,56.80
2018-03-08T10:52:59.555Z,56.80
2018-03-08T10:55:27.080Z,58.10
2018-03-08T10:57:54.601Z,56.30
2018-03-08T11:00:27.720Z,57.30
2018-03-08T11:02:58.155Z,57.90
2018-03-08T11:05:25.704Z,57.40
2018-03-08T11:07:53.217Z,57.50
2018-03-08T11:10:20.779Z,58.10
2018-03-08T11:12:49.127Z,57.00
2018-03-08T11:15:16.636Z,56.90
2018-03-08T11:17:44.204Z,58.50
2018-03-08T11:20:11.721Z,54.90
2018-03-08T11:22:40.025Z,59.70
2018-03-08T11:25:07.553Z,59.00
2018-03-08T11:27:35.848Z,56.00
2018-03-08T11:30:03.376Z,56.50
2018-03-08T11:32:30.901Z,58.50
2018-03-08T11:34:58.426Z,57.80
2018-03-08T11:37:25.961Z,59.50
2018-03-08T11:39:54.241Z,60.80
2018-03-08T11:42:22.558Z,58.20
2018-03-08T11:44:50.065Z,58.20
2018-03-08T11:47:17.607Z,55.40
2018-03-08T11:49:45.120Z,56.20
2018-03-08T11:52:14.341Z,55.70
2018-03-08T11:54:40.252Z,53.10
2018-03-08T11:57:07.762Z,58.40
2018-03-08T11:59:35.295Z,56.60
2018-03-08T12:02:02.833Z,55.80
2018-03-08T12:04:30.360Z,56.00
2018-03-08T12:06:57.898Z,58.10
2018-03-08T12:09:26.205Z,57.70
2018-03-08T12:11:53.797Z,57.70
2018-03-08T12:14:21.320Z,57.80
2018-03-08T12:16:48.856Z,56.80
2018-03-08T12:19:16.386Z,54.20
2018-03-08T12:21:43.944Z,57.10
2018-03-08T12:24:11.461Z,58.40
2018-03-08T12:26:39.005Z,56.30
2018-03-08T12:29:06.536Z,58.10
2018-03-08T12:31:34.114Z,56.70
2018-03-08T12:34:01.634Z,57.80
2018-03-08T12:36:31.073Z,58.40
2018-03-08T12:38:59.345Z,59.60
2018-03-08T12:41:27.690Z,60.40
2018-03-08T12:43:55.238Z,60.40
2018-03-08T12:46:22.785Z,60.40
2018-03-08T12:48:50.343Z,59.60
2018-03-08T12:51:17.851Z,61.30
2018-03-08T12:53:46.173Z,59.70
2018-03-08T12:56:13.691Z,60.30
2018-03-08T12:58:41.228Z,60.90
2018-03-08T13:01:08.746Z,61.60
2018-03-08T13:03:36.290Z,63.40
2018-03-08T13:06:03.830Z,63.10
2018-03-08T13:08:31.368Z,63.70
2018-03-08T13:10:59.645Z,62.60
2018-03-08T13:13:27.956Z,63.00
2018-03-08T13:15:55.502Z,63.00
2018-03-08T13:18:23.032Z,62.80
2018-03-08T13:20:51.325Z,61.20
2018-03-08T13:23:19.647Z,61.20
2018-03-08T13:25:47.188Z,61.20
2018-03-08T13:28:14.700Z,62.40
2018-03-08T13:30:42.214Z,61.60
2018-03-08T13:33:09.753Z,62.70
2018-03-08T13:35:37.270Z,62.70
2018-03-08T13:38:04.797Z,62.90
2018-03-08T13:40:32.312Z,62.40
2018-03-08T13:42:59.853Z,61.30
2018-03-08T13:45:28.129Z,63.90
2018-03-08T13:47:56.434Z,62.30
2018-03-08T13:50:23.962Z,62.20
2018-03-08T13:52:51.492Z,62.30
2018-03-08T13:55:19.031Z,63.50
2018-03-08T13:57:46.562Z,62.50
2018-03-08T14:00:14.085Z,62.40
2018-03-08T14:02:41.626Z,63.90
2018-03-08T14:05:09.140Z,64.00
2018-03-08T14:07:36.666Z,64.30
2018-03-08T14:10:04.971Z,63.80
2018-03-08T14:12:32.520Z,63.80
2018-03-08T14:15:00.046Z,64.30
2018-03-08T14:17:27.586Z,64.30
2018-03-08T14:19:55.109Z,64.10
2018-03-08T14:22:22.665Z,64.30
2018-03-08T14:24:50.181Z,63.20
2018-03-08T14:27:17.714Z,64.50
2018-03-08T14:29:45.246Z,64.70
2018-03-08T14:32:12.773Z,63.90
2018-03-08T14:34:41.069Z,64.50
2018-03-08T14:39:41.526Z,64.90
2018-03-08T14:42:09.105Z,64.80
2018-03-08T14:44:36.620Z,64.70
2018-03-08T14:47:04.135Z,65.10
2018-03-08T14:49:31.666Z,65.50
2018-03-08T14:51:59.189Z,65.60
2018-03-08T14:54:26.725Z,67.10
2018-03-08T14:56:54.237Z,66.40
2018-03-08T14:59:21.778Z,66.50
2018-03-08T15:01:49.339Z,66.60
2018-03-08T15:04:16.877Z,66.90
2018-03-08T15:06:44.409Z,67.00
2018-03-08T15:09:11.967Z,66.90
2018-03-08T15:11:39.483Z,67.00
2018-03-08T15:14:07.053Z,67.40
2018-03-08T15:16:34.617Z,67.40
2018-03-08T15:19:02.126Z,68.20
2018-03-08T15:21:29.645Z,68.00
2018-03-08T15:23:57.190Z,68.30
2018-03-08T15:26:24.731Z,68.50
2018-03-08T15:28:52.309Z,69.10
2018-03-08T15:31:19.816Z,69.40
2018-03-08T15:33:48.113Z,70.00
2018-03-08T15:36:15.638Z,69.90
2018-03-08T15:38:43.932Z,70.80
2018-03-08T15:41:11.433Z,70.70
2018-03-08T15:43:38.956Z,70.90
2018-03-08T15:46:06.465Z,71.30
2018-03-08T15:48:33.984Z,71.50
2018-03-08T15:51:01.492Z,71.30
2018-03-08T15:53:29.021Z,71.40
2018-03-08T15:55:56.544Z,71.80
2018-03-08T15:58:24.078Z,71.30
2018-03-08T16:00:52.387Z,72.00
2018-03-08T16:03:19.918Z,71.90
2018-03-08T16:05:48.198Z,72.10
2018-03-08T16:11:12.197Z,72.00
2018-03-08T16:13:39.729Z,72.00
2018-03-08T16:16:08.075Z,72.50
2018-03-08T16:18:35.608Z,72.40
2018-03-08T16:21:03.132Z,72.20
2018-03-08T16:23:31.684Z,72.50
2018-03-08T16:25:59.226Z,72.50
2018-03-08T16:28:28.474Z,73.50
2018-03-08T16:30:56.750Z,73.80
2018-03-08T16:33:27.188Z,73.40
2018-03-08T16:35:54.795Z,73.30
2018-03-08T16:38:22.221Z,73.50
2018-03-08T16:40:52.201Z,73.00
2018-03-08T16:43:21.175Z,73.10
2018-03-08T16:45:49.305Z,73.00
2018-03-08T16:48:18.402Z,73.10
2018-03-08T16:50:45.928Z,73.00
2018-03-08T16:53:14.876Z,73.20
2018-03-08T16:55:42.463Z,73.20
2018-03-08T16:58:11.511Z,73.80
2018-03-08T17:00:39.571Z,73.40
2018-03-08T17:03:08.217Z,73.90
2018-03-08T17:05:37.880Z,73.50
2018-03-08T17:08:06.778Z,73.40
2018-03-08T17:10:36.457Z,74.00
2018-03-08T17:13:04.359Z,74.70
2018-03-08T17:15:32.799Z,74.00
2018-03-08T17:18:00.708Z,74.00
2018-03-08T17:20:29.022Z,74.20
2018-03-08T17:22:57.430Z,74.10
2018-03-08T17:25:25.188Z,74.00
2018-03-08T17:27:52.832Z,73.30
2018-03-08T17:30:20.985Z,74.30
2018-03-08T17:32:48.613Z,73.90
2018-03-08T17:35:16.942Z,73.10
2018-03-08T17:37:44.464Z,73.60
2018-03-08T17:40:12.030Z,73.90
2018-03-08T17:42:40.300Z,73.80
2018-03-08T17:45:07.827Z,73.70
2018-03-08T17:47:35.342Z,73.80
2018-03-08T17:50:02.861Z,73.70
2018-03-08T17:52:30.368Z,74.30
2018-03-08T17:54:57.897Z,74.00
2018-03-08T17:57:26.174Z,74.40
2018-03-08T17:59:53.743Z,74.40
2018-03-08T18:02:21.236Z,73.90
2018-03-08T18:04:48.761Z,74.40
2018-03-08T18:07:16.265Z,73.80
2018-03-08T18:09:43.810Z,74.80
2018-03-08T18:12:11.308Z,74.60
2018-03-08T18:14:38.837Z,74.50
2018-03-08T18:17:06.471Z,74.60
2018-03-08T18:19:34.018Z,74.50
2018-03-08T18:22:01.526Z,74.60
2018-03-08T18:24:29.028Z,74.20
2018-03-08T18:26:56.553Z,74.00
2018-03-08T18:29:24.352Z,74.30
2018-03-08T18:31:52.210Z,73.70
2018-03-08T18:34:19.932Z,74.00
2018-03-08T18:36:47.695Z,74.10
2018-03-08T18:39:16.455Z,74.10
2018-03-08T18:41:44.286Z,73.70
2018-03-08T18:44:12.067Z,73.90
2018-03-08T18:46:40.081Z,73.90
2018-03-08T18:49:08.369Z,74.20
2018-03-08T18:51:35.988Z,74.20
2018-03-08T18:54:04.264Z,74.10
2018-03-08T18:56:31.791Z,74.00
2018-03-08T18:59:00.056Z,73.60
2018-03-08T19:01:27.609Z,73.60
2018-03-08T19:03:55.880Z,74.20
2018-03-08T19:06:23.401Z,74.10
2018-03-08T19:08:50.917Z,74.10
2018-03-08T19:11:18.449Z,74.00
2018-03-08T19:13:45.956Z,73.90
2018-03-08T19:16:13.496Z,73.90
2018-03-08T19:18:41.002Z,74.00
2018-03-08T19:21:08.542Z,74.20
2018-03-08T19:23:36.104Z,73.80
2018-03-08T19:26:03.628Z,74.30
2018-03-08T19:28:31.139Z,74.40
2018-03-08T19:30:58.666Z,74.40
2018-03-08T19:33:26.177Z,74.60
2018-03-08T19:35:54.460Z,74.80
2018-03-08T19:38:23.038Z,74.80
2018-03-08T19:40:51.325Z,74.40
2018-03-08T19:43:19.599Z,74.50
2018-03-08T19:45:47.140Z,74.40
2018-03-08T19:48:14.765Z,74.60
2018-03-08T19:50:42.327Z,74.70
2018-03-08T19:53:09.834Z,74.80
2018-03-08T19:55:38.128Z,75.30
2018-03-08T19:58:05.663Z,76.00
2018-03-08T20:00:33.962Z,75.50
2018-03-08T20:03:01.563Z,75.50
2018-03-08T20:05:29.244Z,76.00
2018-03-08T20:07:57.557Z,76.00
2018-03-08T20:10:25.081Z,75.90
2018-03-08T20:12:52.601Z,76.00
2018-03-08T20:15:20.133Z,76.30
2018-03-08T20:17:47.654Z,76.20
2018-03-08T20:20:15.180Z,76.60
2018-03-08T20:22:42.698Z,76.00
2018-03-08T20:25:10.210Z,76.00
2018-03-08T20:27:37.757Z,75.80
2018-03-08T20:30:05.264Z,76.10
2018-03-08T20:32:33.567Z,76.20
2018-03-08T20:35:01.083Z,76.20
2018-03-08T20:37:29.475Z,76.20
2018-03-08T20:39:57.020Z,76.20
2018-03-08T20:42:25.313Z,75.90
2018-03-08T20:44:52.822Z,75.90
2018-03-08T20:47:20.355Z,75.70
2018-03-08T20:49:47.867Z,75.80
2018-03-08T20:52:15.398Z,76.00
2018-03-08T20:54:42.901Z,76.00
2018-03-08T20:57:11.212Z,76.20
2018-03-08T20:59:38.711Z,76.10
2018-03-08T21:02:06.253Z,76.40
2018-03-08T21:04:33.765Z,76.40
2018-03-08T21:07:01.275Z,76.10
2018-03-08T21:09:28.771Z,76.20
2018-03-08T21:11:56.297Z,76.80
2018-03-08T21:14:23.800Z,76.50
2018-03-08T21:16:51.328Z,76.30
2018-03-08T21:19:18.832Z,76.50
2018-03-08T21:21:46.351Z,76.50
2018-03-08T21:24:14.615Z,76.40
2018-03-08T21:26:42.913Z,76.50
2018-03-08T21:29:10.549Z,76.50
2018-03-08T21:31:38.129Z,76.30
2018-03-08T21:34:05.679Z,76.40
2018-03-08T21:36:33.177Z,76.60
2018-03-08T21:39:00.700Z,76.30
2018-03-08T21:41:28.230Z,76.40
2018-03-08T21:43:55.780Z,76.40
2018-03-08T21:46:23.342Z,76.40
2018-03-08T21:48:50.840Z,76.30
2018-03-08T21:51:18.368Z,76.10
2018-03-08T21:53:45.876Z,76.00
2018-03-08T21:56:13.393Z,76.20
2018-03-08T21:58:41.660Z,75.80
2018-03-08T22:01:09.961Z,76.10
2018-03-08T22:03:37.466Z,76.00
2018-03-08T22:06:04.985Z,75.80
2018-03-08T22:08:32.489Z,75.80
2018-03-08T22:11:00.017Z,75.90
2018-03-08T22:13:27.541Z,75.80
2018-03-08T22:15:55.053Z,75.50
2018-03-08T22:18:22.582Z,75.70
2018-03-08T22:20:50.081Z,75.90
2018-03-08T22:23:17.608Z,75.80
2018-03-08T22:25:45.117Z,75.70
2018-03-08T22:28:12.664Z,75.90
2018-03-08T22:30:40.190Z,75.80
2018-03-08T22:33:07.793Z,75.90
2018-03-08T22:35:36.236Z,76.00
2018-03-08T22:38:03.769Z,76.00
2018-03-08T22:43:04.289Z,75.80
2018-03-08T22:45:32.557Z,76.20
2018-03-08T22:48:00.865Z,76.20
2018-03-08T22:50:28.373Z,76.10
2018-03-08T22:52:55.904Z,76.20
2018-03-08T22:55:23.414Z,77.30
2018-03-08T22:57:52.295Z,76.10
2018-03-08T23:00:19.815Z,76.30
2018-03-08T23:02:47.401Z,76.30
2018-03-08T23:05:15.681Z,76.20
2018-03-08T23:07:43.204Z,76.10
2018-03-08T23:10:10.714Z,76.10
2018-03-08T23:12:38.246Z,76.40
2018-03-08T23:15:05.761Z,76.70
2018-03-08T23:17:33.284Z,76.30
2018-03-08T23:20:00.787Z,76.30
2018-03-08T23:22:28.315Z,76.40
2018-03-08T23:24:55.820Z,76.40
2018-03-08T23:27:24.144Z,76.30
2018-03-08T23:29:51.714Z,76.20
2018-03-08T23:32:19.252Z,76.20
2018-03-08T23:34:46.774Z,76.20
2018-03-08T23:37:14.282Z,76.20
2018-03-08T23:39:41.825Z,76.50
2018-03-08T23:42:09.337Z,76.20
2018-03-08T23:44:36.864Z,76.20
2018-03-08T23:47:04.377Z,76.20
2018-03-08T23:49:32.684Z,76.50
2018-03-08T23:52:00.197Z,76.40
2018-03-08T23:54:27.720Z,76.10
2018-03-08T23:56:55.221Z,76.30
2018-03-08T23:59:22.756Z,76.10
